Time;durP1;ratioP1;P1;durP2;ratioP2;P2;SDS_P1;SDS_P2;PMS_P1;PMS_P2;Temp;Humidity;BMP_temperature;BMP_pressure;BME280_temperature;BME280_humidity;BME280_pressure;Samples;Min_cycle;Max_cycle;Signal;HPM_P1;HPM_P2
2023/05/26 00:00:07;;;;;;;13.70;9.20;;;14.30;98.30;;;;;;5013471;28;20132;-53
2023/05/26 00:02:52;;;;;;;14.00;9.02;;;14.40;98.30;;;;;;4995465;28;20415;-50
2023/05/26 00:05:40;;;;;;;14.18;9.05;;;14.30;98.80;;;;;;5007831;28;20553;-51
2023/05/26 00:08:26;;;;;;;11.35;9.30;;;14.30;98.60;;;;;;5014829;28;20034;-48
2023/05/26 00:11:11;;;;;;;15.45;10.60;;;14.30;99.10;;;;;;5013364;28;20044;-51
2023/05/26 00:13:57;;;;;;;13.45;9.90;;;14.20;98.70;;;;;;5013320;28;20066;-51
2023/05/26 00:16:44;;;;;;;16.85;10.23;;;14.10;98.70;;;;;;5013868;28;20079;-53
2023/05/26 00:19:31;;;;;;;16.45;10.57;;;14.10;98.70;;;;;;5014724;28;20029;-51
2023/05/26 00:22:18;;;;;;;16.95;10.48;;;14.00;98.70;;;;;;5013968;28;20034;-52
2023/05/26 00:25:05;;;;;;;14.65;9.63;;;13.90;98.80;;;;;;5014680;28;20026;-49
2023/05/26 00:27:51;;;;;;;15.18;10.15;;;13.90;99.00;;;;;;5013539;28;20034;-54
2023/05/26 00:30:37;;;;;;;15.25;9.70;;;13.90;99.30;;;;;;5013704;28;20025;-50
2023/05/26 00:33:23;;;;;;;13.80;10.07;;;13.80;99.00;;;;;;5013163;28;20052;-52
2023/05/26 00:36:09;;;;;;;15.73;11.13;;;13.70;99.00;;;;;;5012829;28;20029;-49
2023/05/26 00:38:55;;;;;;;18.40;11.80;;;13.60;99.30;;;;;;5014522;28;20105;-49
2023/05/26 00:41:41;;;;;;;17.02;10.75;;;13.50;99.50;;;;;;5012237;28;20034;-48
2023/05/26 00:44:26;;;;;;;17.42;10.68;;;13.30;99.90;;;;;;5013059;28;20414;-50
2023/05/26 00:47:12;;;;;;;15.85;11.45;;;13.20;99.90;;;;;;5013862;28;20061;-53
2023/05/26 00:49:59;;;;;;;13.30;11.07;;;12.90;99.90;;;;;;5013595;28;20034;-54
2023/05/26 00:52:45;;;;;;;15.10;9.95;;;12.70;99.90;;;;;;5014105;28;20026;-51
2023/05/26 00:55:32;;;;;;;15.23;10.07;;;12.70;99.90;;;;;;5013227;28;20029;-50
2023/05/26 00:58:18;;;;;;;15.38;10.60;;;12.80;99.90;;;;;;5013153;28;20518;-52
2023/05/26 01:01:04;;;;;;;20.75;11.95;;;12.80;99.90;;;;;;5013061;28;20037;-50
2023/05/26 01:03:50;;;;;;;16.40;10.93;;;12.90;99.90;;;;;;5012694;28;20034;-53
2023/05/26 01:06:36;;;;;;;14.15;10.73;;;12.60;99.90;;;;;;5013315;28;20030;-52
2023/05/26 01:09:23;;;;;;;18.65;10.73;;;12.50;99.90;;;;;;5012664;28;20034;-50
2023/05/26 01:12:14;;;;;;;17.73;10.75;;;12.50;99.90;;;;;;5012758;28;20041;-50
2023/05/26 01:15:13;;;;;;;20.15;11.85;;;12.60;99.90;;;;;;5011819;28;20104;-52
2023/05/26 01:18:05;;;;;;;21.08;10.43;;;12.40;99.90;;;;;;5001854;28;20058;-50
2023/05/26 01:21:07;;;;;;;18.30;11.68;;;12.50;99.90;;;;;;4994191;28;20034;-49
2023/05/26 01:24:32;;;;;;;19.98;10.98;;;12.50;99.90;;;;;;5011982;28;20080;-50
2023/05/26 01:27:31;;;;;;;15.77;10.45;;;12.60;99.90;;;;;;4999169;28;20061;-50
2023/05/26 01:30:18;;;;;;;18.77;10.00;;;12.60;99.90;;;;;;4993742;28;20499;-48
2023/05/26 01:33:04;;;;;;;17.50;10.48;;;12.60;99.90;;;;;;4993506;28;20156;-48
2023/05/26 01:35:50;;;;;;;19.02;11.02;;;12.70;99.90;;;;;;4993672;28;20026;-50
2023/05/26 01:38:36;;;;;;;19.00;10.85;;;12.70;99.90;;;;;;4994209;28;20649;-51
2023/05/26 01:41:26;;;;;;;16.55;11.13;;;12.70;99.90;;;;;;4993125;28;20030;-52
2023/05/26 01:44:29;;;;;;;15.52;9.93;;;12.70;99.90;;;;;;4995730;28;20022;-53
2023/05/26 01:47:15;;;;;;;17.42;11.02;;;12.50;99.90;;;;;;5012254;28;20351;-53
2023/05/26 01:50:05;;;;;;;16.92;11.10;;;12.50;99.90;;;;;;5012157;28;20029;-50
2023/05/26 01:52:54;;;;;;;17.33;10.25;;;12.30;99.90;;;;;;5012984;28;20542;-50
2023/05/26 01:55:41;;;;;;;15.73;10.35;;;12.20;99.90;;;;;;5013036;28;20053;-52
2023/05/26 01:58:28;;;;;;;19.95;11.00;;;12.10;99.90;;;;;;5012809;28;20022;-53
2023/05/26 02:01:14;;;;;;;19.75;11.35;;;12.10;99.90;;;;;;5018440;28;20526;-53
2023/05/26 02:04:00;;;;;;;17.80;11.63;;;12.20;99.90;;;;;;5012443;28;20041;-51
2023/05/26 02:06:46;;;;;;;22.83;11.55;;;12.10;99.90;;;;;;5011412;28;20037;-51
2023/05/26 02:09:33;;;;;;;20.23;11.75;;;12.20;99.90;;;;;;5012571;28;20034;-53
2023/05/26 02:12:19;;;;;;;23.20;10.80;;;12.00;99.90;;;;;;5012315;28;20026;-53
2023/05/26 02:15:05;;;;;;;19.58;11.10;;;12.00;99.90;;;;;;5011684;28;20038;-54
2023/05/26 02:17:54;;;;;;;20.67;10.60;;;12.10;99.90;;;;;;5012051;28;20026;-50
2023/05/26 02:20:40;;;;;;;22.15;11.57;;;12.00;99.90;;;;;;5011571;28;20510;-53
2023/05/26 02:23:27;;;;;;;24.98;11.75;;;12.00;99.90;;;;;;5010833;28;20100;-50
2023/05/26 02:26:13;;;;;;;22.55;11.55;;;11.80;99.90;;;;;;5011008;28;20037;-50
2023/05/26 02:28:59;;;;;;;22.85;11.10;;;11.80;99.90;;;;;;5012367;28;20501;-53
2023/05/26 02:31:45;;;;;;;20.23;11.35;;;11.70;99.90;;;;;;5012685;28;20065;-50
2023/05/26 02:34:31;;;;;;;25.05;11.77;;;11.70;99.90;;;;;;5011615;28;20033;-53
2023/05/26 02:37:20;;;;;;;22.75;12.30;;;11.70;99.90;;;;;;5012533;28;20033;-51
2023/05/26 02:40:09;;;;;;;20.25;11.38;;;11.60;99.90;;;;;;5011981;28;20026;-50
2023/05/26 02:42:55;;;;;;;25.27;11.45;;;11.60;99.90;;;;;;5009885;28;20042;-53
2023/05/26 02:45:42;;;;;;;24.35;11.02;;;11.60;99.90;;;;;;4997858;28;20022;-54
2023/05/26 02:48:28;;;;;;;19.33;10.98;;;11.60;99.90;;;;;;5011482;28;20077;-50
2023/05/26 02:51:14;;;;;;;23.38;12.30;;;11.50;99.90;;;;;;5011050;28;20065;-53
2023/05/26 02:54:01;;;;;;;22.35;11.50;;;11.50;99.90;;;;;;5011857;28;20026;-50
2023/05/26 02:56:47;;;;;;;24.08;11.65;;;11.40;99.90;;;;;;5011678;28;20030;-50
2023/05/26 02:59:33;;;;;;;23.48;11.20;;;11.50;99.90;;;;;;5011573;28;20057;-49
2023/05/26 03:02:19;;;;;;;27.02;12.32;;;11.50;99.90;;;;;;5010151;28;20030;-51
2023/05/26 03:05:05;;;;;;;26.92;11.77;;;11.50;99.90;;;;;;5011674;28;20034;-52
2023/05/26 03:07:51;;;;;;;25.48;11.90;;;11.40;99.90;;;;;;5011135;28;20408;-52
2023/05/26 03:10:39;;;;;;;27.88;12.02;;;11.30;99.90;;;;;;5011704;28;20025;-49
2023/05/26 03:13:25;;;;;;;27.25;11.25;;;11.30;99.90;;;;;;5011003;28;20025;-50
2023/05/26 03:16:12;;;;;;;25.08;11.35;;;11.40;99.90;;;;;;5009815;28;20064;-53
2023/05/26 03:18:58;;;;;;;25.83;11.95;;;11.40;99.90;;;;;;5012037;28;20022;-54
2023/05/26 03:21:45;;;;;;;28.10;11.88;;;11.40;99.90;;;;;;5010190;28;20029;-51
2023/05/26 03:24:31;;;;;;;27.13;11.70;;;11.40;99.90;;;;;;5011740;28;20026;-51
2023/05/26 03:27:17;;;;;;;27.38;11.05;;;11.30;99.90;;;;;;5010292;28;20036;-53
2023/05/26 03:30:04;;;;;;;27.67;11.52;;;11.30;99.90;;;;;;5011354;28;20034;-49
2023/05/26 03:32:50;;;;;;;24.50;11.40;;;11.30;99.90;;;;;;5011484;28;20074;-52
2023/05/26 03:35:36;;;;;;;27.35;11.38;;;11.30;99.90;;;;;;5013988;28;20030;-51
2023/05/26 03:38:22;;;;;;;27.30;11.77;;;11.40;99.90;;;;;;5015532;28;20022;-48
2023/05/26 03:41:08;;;;;;;24.15;11.23;;;11.30;99.90;;;;;;5015008;28;20034;-51
2023/05/26 03:43:54;;;;;;;28.50;11.82;;;11.20;99.90;;;;;;5014763;28;20026;-52
2023/05/26 03:46:40;;;;;;;29.92;12.35;;;11.20;99.90;;;;;;5013741;28;20064;-54
2023/05/26 03:49:26;;;;;;;32.40;12.93;;;11.20;99.90;;;;;;5015373;28;20113;-53
2023/05/26 03:52:13;;;;;;;25.35;11.40;;;11.20;99.90;;;;;;5014081;28;20103;-50
2023/05/26 03:54:59;;;;;;;30.40;12.60;;;11.30;99.90;;;;;;5015893;28;20014;-50
2023/05/26 03:57:45;;;;;;;24.13;11.90;;;11.20;99.90;;;;;;5014865;28;20498;-50
2023/05/26 04:00:32;;;;;;;25.70;11.77;;;11.10;99.90;;;;;;5014823;28;20034;-50
2023/05/26 04:03:18;;;;;;;25.45;11.27;;;11.20;99.90;;;;;;5014957;28;20073;-50
2023/05/26 04:06:04;;;;;;;40.65;12.30;;;11.10;99.90;;;;;;5013744;28;20037;-53
2023/05/26 04:08:50;;;;;;;26.08;10.85;;;11.10;99.90;;;;;;5015345;28;20056;-52
2023/05/26 04:11:36;;;;;;;31.10;12.23;;;11.20;99.90;;;;;;5013972;28;20140;-54
2023/05/26 04:14:22;;;;;;;29.15;11.85;;;11.10;99.90;;;;;;5014739;28;20387;-52
2023/05/26 04:17:08;;;;;;;25.63;11.85;;;11.00;99.90;;;;;;5013799;28;20033;-52
2023/05/26 04:19:54;;;;;;;30.50;12.23;;;11.00;99.90;;;;;;5013735;28;20022;-51
2023/05/26 04:22:40;;;;;;;28.77;11.57;;;11.00;99.90;;;;;;5014740;28;20064;-51
2023/05/26 04:25:27;;;;;;;24.13;11.43;;;11.00;99.90;;;;;;5014540;28;20026;-53
2023/05/26 04:28:14;;;;;;;28.67;11.88;;;11.00;99.90;;;;;;5014355;28;20030;-51
2023/05/26 04:31:01;;;;;;;29.33;11.32;;;10.90;99.90;;;;;;5014455;28;20065;-51
2023/05/26 04:33:46;;;;;;;31.83;12.65;;;11.00;99.90;;;;;;5014579;28;20065;-51
2023/05/26 04:36:32;;;;;;;27.13;11.80;;;11.10;99.90;;;;;;5013287;28;20041;-49
2023/05/26 04:39:19;;;;;;;29.92;12.27;;;11.10;99.90;;;;;;5013301;28;20034;-54
2023/05/26 04:42:05;;;;;;;37.95;12.35;;;11.20;99.90;;;;;;5014899;28;20058;-49
2023/05/26 04:44:51;;;;;;;30.02;12.63;;;11.10;99.90;;;;;;5014061;28;20101;-53
2023/05/26 04:47:37;;;;;;;31.33;12.23;;;11.20;99.90;;;;;;5013599;28;20021;-51
2023/05/26 04:50:23;;;;;;;31.77;13.73;;;11.30;99.90;;;;;;5014606;28;20111;-49
2023/05/26 04:53:10;;;;;;;33.38;11.93;;;11.40;99.90;;;;;;4998402;28;20026;-45
2023/05/26 04:55:59;;;;;;;24.65;10.80;;;11.40;99.90;;;;;;5014540;28;20068;-46
2023/05/26 04:58:46;;;;;;;30.08;11.82;;;11.50;99.90;;;;;;5014222;28;20473;-46
2023/05/26 05:01:32;;;;;;;34.47;11.68;;;11.60;99.90;;;;;;5012854;28;20133;-46
2023/05/26 05:04:19;;;;;;;32.42;12.00;;;11.70;99.90;;;;;;5014191;28;20113;-46
2023/05/26 05:07:05;;;;;;;32.30;11.00;;;11.80;99.90;;;;;;5013616;28;20105;-44
2023/05/26 05:09:51;;;;;;;50.25;19.75;;;12.00;99.90;;;;;;5013133;28;20038;-44
2023/05/26 05:12:37;;;;;;;44.33;12.70;;;11.80;99.90;;;;;;5013374;28;20034;-49
2023/05/26 05:15:23;;;;;;;35.03;12.15;;;11.90;99.90;;;;;;5013211;28;20499;-50
2023/05/26 05:18:09;;;;;;;33.80;12.05;;;11.90;99.90;;;;;;5012806;28;20104;-47
2023/05/26 05:20:56;;;;;;;28.75;12.52;;;11.90;99.90;;;;;;5013648;28;20108;-50
2023/05/26 05:23:42;;;;;;;43.22;12.65;;;12.10;99.90;;;;;;5020685;28;20403;-48
2023/05/26 05:26:28;;;;;;;34.95;12.55;;;12.20;99.90;;;;;;5019866;28;20455;-46
2023/05/26 05:29:14;;;;;;;35.45;12.07;;;12.20;99.90;;;;;;5014554;28;20022;-46
2023/05/26 05:32:00;;;;;;;32.22;11.45;;;12.20;99.90;;;;;;5014248;28;20030;-47
2023/05/26 05:34:46;;;;;;;33.63;11.35;;;12.30;99.90;;;;;;5012503;28;20025;-49
2023/05/26 05:37:32;;;;;;;36.83;13.43;;;12.40;99.90;;;;;;5022738;28;20387;-48
2023/05/26 05:40:18;;;;;;;38.42;13.32;;;12.40;99.90;;;;;;5031574;28;20036;-47
2023/05/26 05:43:04;;;;;;;30.05;12.27;;;12.10;99.90;;;;;;5020928;28;20118;-50
2023/05/26 05:45:50;;;;;;;39.83;14.30;;;12.30;99.90;;;;;;5013491;28;20114;-48
2023/05/26 05:48:39;;;;;;;38.75;12.70;;;12.30;99.90;;;;;;5012738;28;20410;-47
2023/05/26 05:51:25;;;;;;;37.72;11.95;;;12.30;99.90;;;;;;5014068;28;20169;-48
2023/05/26 05:54:11;;;;;;;39.58;14.05;;;12.30;99.90;;;;;;5011830;28;20090;-48
2023/05/26 05:56:57;;;;;;;42.42;12.43;;;12.20;99.90;;;;;;5011774;28;20451;-48
2023/05/26 05:59:43;;;;;;;32.22;12.65;;;12.30;99.90;;;;;;5011547;28;20030;-51
2023/05/26 06:02:29;;;;;;;27.33;12.35;;;12.50;99.90;;;;;;5000802;28;20061;-49
2023/05/26 06:05:15;;;;;;;33.55;12.20;;;12.70;99.90;;;;;;5001753;28;20503;-48
2023/05/26 06:08:01;;;;;;;39.55;12.57;;;12.70;99.90;;;;;;5002831;28;20032;-47
2023/05/26 06:10:47;;;;;;;36.45;12.00;;;12.70;99.90;;;;;;5002340;28;20117;-51
2023/05/26 06:13:34;;;;;;;36.47;12.07;;;12.80;99.90;;;;;;5006990;28;20030;-49
2023/05/26 06:16:20;;;;;;;42.63;12.77;;;12.80;99.90;;;;;;5006670;28;20498;-48
2023/05/26 06:19:06;;;;;;;33.50;12.15;;;12.80;99.90;;;;;;5005290;28;20026;-46
2023/05/26 06:21:52;;;;;;;32.08;11.68;;;12.90;99.90;;;;;;5010672;28;20509;-46
2023/05/26 06:24:38;;;;;;;28.20;10.55;;;13.00;99.90;;;;;;5010786;28;20243;-48
2023/05/26 06:27:23;;;;;;;35.65;12.43;;;13.10;99.90;;;;;;5010613;28;20030;-47
2023/05/26 06:30:10;;;;;;;44.83;12.73;;;13.30;99.90;;;;;;4992842;28;20038;-47
2023/05/26 06:32:56;;;;;;;37.10;12.82;;;13.30;99.90;;;;;;5007542;28;20075;-46
2023/05/26 06:35:42;;;;;;;31.63;13.90;;;13.30;99.90;;;;;;5000800;28;20050;-50
2023/05/26 06:38:28;;;;;;;33.97;12.82;;;13.30;99.90;;;;;;5009571;28;20030;-46
2023/05/26 06:41:14;;;;;;;33.25;12.70;;;13.10;99.90;;;;;;5010094;28;20437;-45
2023/05/26 06:44:00;;;;;;;35.35;13.40;;;13.20;99.90;;;;;;5010152;28;20076;-46
2023/05/26 06:46:46;;;;;;;33.30;13.30;;;13.10;99.90;;;;;;5010515;28;20053;-46
2023/05/26 06:49:31;;;;;;;32.30;12.57;;;13.10;99.90;;;;;;5009883;28;20042;-49
2023/05/26 06:52:18;;;;;;;35.63;12.98;;;13.00;99.90;;;;;;5009431;28;20034;-50
2023/05/26 06:55:04;;;;;;;36.17;13.85;;;13.00;99.90;;;;;;5012048;28;20010;-48
2023/05/26 06:57:50;;;;;;;26.13;11.25;;;13.10;99.90;;;;;;5011061;28;20030;-47
2023/05/26 07:00:36;;;;;;;37.60;12.25;;;13.50;99.90;;;;;;5010655;28;20045;-49
2023/05/26 07:03:22;;;;;;;30.55;12.48;;;13.60;99.90;;;;;;5010592;28;20114;-46
2023/05/26 07:06:08;;;;;;;47.53;13.77;;;13.80;99.90;;;;;;5009176;28;20026;-52
2023/05/26 07:08:54;;;;;;;32.13;12.52;;;13.80;99.90;;;;;;5009820;28;20036;-50
2023/05/26 07:11:40;;;;;;;39.72;11.88;;;13.80;99.90;;;;;;5008650;28;20507;-46
2023/05/26 07:14:26;;;;;;;35.40;12.85;;;13.80;99.90;;;;;;5007657;28;20022;-47
2023/05/26 07:17:12;;;;;;;39.35;12.65;;;13.90;99.90;;;;;;5007602;28;20041;-46
2023/05/26 07:19:58;;;;;;;31.27;10.98;;;14.20;99.90;;;;;;5009686;28;20014;-50
2023/05/26 07:22:44;;;;;;;28.88;11.43;;;14.40;99.90;;;;;;5009949;28;20483;-51
2023/05/26 07:25:30;;;;;;;33.13;11.70;;;14.40;99.90;;;;;;5009942;28;20030;-50
2023/05/26 07:28:16;;;;;;;34.45;11.88;;;14.30;99.90;;;;;;5009296;28;20079;-48
2023/05/26 07:31:02;;;;;;;26.83;10.23;;;14.50;99.90;;;;;;5006649;28;20447;-53
2023/05/26 07:33:49;;;;;;;30.67;10.52;;;14.60;99.90;;;;;;5010875;28;20090;-49
2023/05/26 07:36:35;;;;;;;34.35;11.45;;;14.80;99.90;;;;;;5009298;28;20038;-48
2023/05/26 07:39:21;;;;;;;36.55;12.15;;;14.80;99.90;;;;;;5006635;28;20105;-48
2023/05/26 07:42:07;;;;;;;34.40;10.95;;;14.90;99.90;;;;;;5009637;28;20042;-50
2023/05/26 07:44:55;;;;;;;28.13;10.88;;;15.00;99.90;;;;;;5010166;28;20030;-52
2023/05/26 07:47:41;;;;;;;37.45;11.63;;;14.80;99.90;;;;;;5009456;28;20037;-51
2023/05/26 07:50:27;;;;;;;31.23;10.80;;;14.90;99.90;;;;;;5009158;28;20057;-49
2023/05/26 07:53:13;;;;;;;32.80;10.48;;;14.90;99.90;;;;;;5009810;28;20022;-49
2023/05/26 07:55:59;;;;;;;30.38;9.52;;;14.90;99.90;;;;;;5010251;28;20034;-50
2023/05/26 07:58:44;;;;;;;30.90;9.80;;;15.00;99.90;;;;;;5006757;28;20049;-53
2023/05/26 08:01:31;;;;;;;26.65;10.43;;;15.10;99.90;;;;;;5009154;28;20037;-48
2023/05/26 08:04:17;;;;;;;34.85;11.27;;;15.30;99.90;;;;;;5005388;28;20030;-50
2023/05/26 08:07:03;;;;;;;33.17;10.63;;;15.10;99.90;;;;;;5008669;28;20092;-48
2023/05/26 08:09:49;;;;;;;31.45;10.57;;;15.30;99.90;;;;;;5010499;28;20080;-47
2023/05/26 08:12:35;;;;;;;31.95;9.98;;;15.30;99.90;;;;;;5005074;28;21884;-52
2023/05/26 08:15:21;;;;;;;37.67;10.90;;;15.40;99.60;;;;;;5004452;28;20038;-52
2023/05/26 08:18:07;;;;;;;26.88;10.32;;;15.60;99.00;;;;;;5005033;28;20030;-51
2023/05/26 08:20:54;;;;;;;29.38;9.98;;;15.40;99.30;;;;;;5003641;28;20030;-50
2023/05/26 08:23:41;;;;;;;34.35;11.40;;;15.40;98.90;;;;;;5003585;28;20042;-46
2023/05/26 08:26:27;;;;;;;25.10;9.65;;;15.70;98.70;;;;;;5011264;28;20026;-46
2023/05/26 08:29:13;;;;;;;25.02;9.27;;;15.50;98.60;;;;;;5009143;28;20034;-49
2023/05/26 08:31:59;;;;;;;25.02;9.40;;;15.50;98.00;;;;;;5006570;28;20026;-48
2023/05/26 08:34:45;;;;;;;28.38;9.25;;;15.50;97.80;;;;;;5007500;28;20110;-49
2023/05/26 08:37:31;;;;;;;24.73;8.88;;;15.80;97.70;;;;;;4998333;28;20449;-53
2023/05/26 08:40:17;;;;;;;19.50;8.93;;;15.80;97.50;;;;;;5004672;28;20040;-53
2023/05/26 08:43:09;;;;;;;23.17;9.40;;;15.90;96.60;;;;;;5004878;28;20114;-54
2023/05/26 08:45:57;;;;;;;25.02;9.30;;;16.10;96.50;;;;;;5004895;28;20023;-50
2023/05/26 08:48:44;;;;;;;27.60;9.32;;;16.00;96.70;;;;;;5005544;28;20072;-51
2023/05/26 08:51:36;;;;;;;28.00;10.73;;;16.10;96.60;;;;;;5006735;28;20033;-49
2023/05/26 08:54:22;;;;;;;25.38;9.80;;;16.00;96.00;;;;;;5003861;28;20033;-54
2023/05/26 08:57:10;;;;;;;25.73;8.45;;;16.30;96.40;;;;;;5006717;28;20038;-50
2023/05/26 08:59:57;;;;;;;24.88;9.35;;;16.20;95.90;;;;;;5002010;28;20018;-52
2023/05/26 09:02:43;;;;;;;22.70;8.77;;;16.30;95.60;;;;;;5012639;28;20491;-50
2023/05/26 09:05:30;;;;;;;30.73;9.85;;;16.60;95.50;;;;;;5013912;28;20034;-52
2023/05/26 09:08:17;;;;;;;22.00;8.15;;;16.60;95.70;;;;;;5010131;28;20065;-52
2023/05/26 09:11:25;;;;;;;22.10;8.75;;;16.60;95.50;;;;;;5013251;28;20121;-50
2023/05/26 09:14:20;;;;;;;24.02;9.68;;;16.80;95.10;;;;;;5007207;28;20079;-51
2023/05/26 09:17:06;;;;;;;26.52;9.80;;;16.80;94.60;;;;;;5001849;28;20034;-50
2023/05/26 09:19:57;;;;;;;24.02;9.75;;;16.80;94.90;;;;;;5016982;28;20045;-54
2023/05/26 09:22:44;;;;;;;21.45;9.43;;;16.60;95.50;;;;;;5014723;28;20065;-51
2023/05/26 09:25:34;;;;;;;23.98;10.05;;;16.40;95.90;;;;;;5013848;28;20072;-52
2023/05/26 09:28:22;;;;;;;24.70;10.30;;;16.50;96.00;;;;;;5012929;28;20585;-50
2023/05/26 09:31:11;;;;;;;26.92;8.95;;;16.50;96.00;;;;;;4998131;28;20499;-53
2023/05/26 09:33:59;;;;;;;24.98;8.50;;;16.70;95.00;;;;;;5005971;28;20406;-50
2023/05/26 09:36:44;;;;;;;24.42;9.35;;;16.70;93.80;;;;;;5013162;28;20095;-52
2023/05/26 09:39:34;;;;;;;25.98;10.15;;;16.70;94.20;;;;;;5012469;28;20084;-51
2023/05/26 09:42:19;;;;;;;26.75;10.20;;;16.80;94.90;;;;;;5012505;28;20030;-50
2023/05/26 09:45:06;;;;;;;32.15;9.63;;;16.90;94.70;;;;;;5008127;28;20061;-49
2023/05/26 09:47:58;;;;;;;27.88;10.18;;;17.00;95.30;;;;;;5012095;28;20018;-49
2023/05/26 09:50:44;;;;;;;23.63;8.82;;;17.00;94.70;;;;;;5011536;28;20464;-50
2023/05/26 09:53:30;;;;;;;26.17;9.10;;;16.70;94.50;;;;;;5011526;28;20032;-50
2023/05/26 09:56:18;;;;;;;29.52;10.98;;;16.90;95.10;;;;;;5010235;28;20034;-47
2023/05/26 09:59:05;;;;;;;33.33;10.48;;;17.00;95.20;;;;;;5012478;28;20022;-49
2023/05/26 10:01:52;;;;;;;27.65;10.23;;;16.90;95.50;;;;;;5010259;28;20042;-51
2023/05/26 10:04:39;;;;;;;21.98;8.52;;;16.50;96.50;;;;;;5011571;28;20115;-49
2023/05/26 10:07:27;;;;;;;34.45;10.55;;;16.50;95.50;;;;;;5010249;28;20033;-49
2023/05/26 10:10:14;;;;;;;27.42;9.98;;;16.70;95.40;;;;;;5010321;28;20030;-49
2023/05/26 10:13:01;;;;;;;29.58;9.15;;;17.10;95.10;;;;;;5011957;28;20026;-49
2023/05/26 10:15:48;;;;;;;22.75;10.02;;;17.40;94.80;;;;;;5009741;28;20033;-49
2023/05/26 10:18:34;;;;;;;26.27;9.43;;;17.20;95.00;;;;;;4994548;28;20065;-50
2023/05/26 10:21:24;;;;;;;23.95;9.05;;;17.40;94.60;;;;;;5010286;28;20056;-50
2023/05/26 10:24:21;;;;;;;26.15;9.10;;;17.40;94.40;;;;;;5009030;28;20026;-49
2023/05/26 10:27:29;;;;;;;22.90;9.73;;;17.50;94.60;;;;;;5008998;28;20032;-50
2023/05/26 10:30:20;;;;;;;25.75;9.73;;;17.30;94.80;;;;;;5010172;28;20077;-49
2023/05/26 10:33:14;;;;;;;21.02;9.07;;;17.20;95.10;;;;;;5005281;28;20419;-53
2023/05/26 10:36:00;;;;;;;27.45;10.00;;;17.60;94.40;;;;;;5018932;28;20582;-50
2023/05/26 10:38:51;;;;;;;28.23;9.55;;;17.90;94.10;;;;;;5012240;28;20029;-48
2023/05/26 10:41:39;;;;;;;23.77;8.93;;;17.80;93.50;;;;;;5010530;28;20112;-49
2023/05/26 10:44:43;;;;;;;27.75;9.13;;;17.60;93.90;;;;;;5009017;28;20026;-48
2023/05/26 10:47:30;;;;;;;30.25;9.95;;;17.80;94.00;;;;;;5009192;28;20022;-49
2023/05/26 10:50:16;;;;;;;23.13;8.90;;;18.10;93.40;;;;;;5009365;28;20034;-51
2023/05/26 10:53:18;;;;;;;25.90;9.02;;;17.90;93.20;;;;;;5011025;28;20060;-53
2023/05/26 10:56:08;;;;;;;20.27;8.10;;;18.10;93.20;;;;;;5010652;28;20018;-49
2023/05/26 10:58:57;;;;;;;29.10;8.23;;;18.10;93.10;;;;;;5009876;28;20026;-48
2023/05/26 11:01:50;;;;;;;27.40;8.65;;;17.90;93.40;;;;;;5011159;28;20026;-49
2023/05/26 11:04:42;;;;;;;29.00;9.02;;;18.00;93.20;;;;;;5011111;28;20129;-48
2023/05/26 11:07:29;;;;;;;32.70;8.85;;;17.80;92.50;;;;;;5008352;28;20101;-50
2023/05/26 11:10:15;;;;;;;25.83;8.80;;;17.60;92.80;;;;;;5009098;28;20034;-52
2023/05/26 11:13:02;;;;;;;26.80;8.18;;;17.90;92.20;;;;;;5010663;28;20041;-50
2023/05/26 11:16:09;;;;;;;23.95;8.43;;;18.30;92.60;;;;;;5007586;28;20022;-51
2023/05/26 11:18:57;;;;;;;25.85;8.18;;;18.40;92.60;;;;;;5012051;28;20030;-49
2023/05/26 11:21:43;;;;;;;26.65;8.20;;;18.30;92.40;;;;;;5011481;28;20034;-48
2023/05/26 11:24:30;;;;;;;26.50;8.27;;;18.00;92.50;;;;;;5010200;28;20022;-51
2023/05/26 11:27:16;;;;;;;19.42;7.22;;;18.20;91.40;;;;;;5008616;28;20026;-53
2023/05/26 11:30:03;;;;;;;22.35;8.95;;;18.50;91.30;;;;;;5010977;28;20081;-48
2023/05/26 11:32:51;;;;;;;18.75;7.18;;;18.80;91.00;;;;;;5008788;28;20079;-54
2023/05/26 11:35:37;;;;;;;19.98;7.63;;;18.60;91.30;;;;;;5011230;28;20124;-54
2023/05/26 11:38:22;;;;;;;21.35;7.68;;;18.40;91.00;;;;;;5002605;28;20057;-53
2023/05/26 11:41:10;;;;;;;21.42;7.60;;;18.40;90.70;;;;;;5003136;28;20041;-50
2023/05/26 11:43:56;;;;;;;19.33;6.75;;;18.30;90.60;;;;;;5001791;28;20022;-53
2023/05/26 11:46:44;;;;;;;22.60;8.00;;;18.40;90.50;;;;;;4995516;28;20044;-49
2023/05/26 11:49:30;;;;;;;21.95;7.43;;;18.30;90.50;;;;;;5006613;28;20510;-51
2023/05/26 11:52:16;;;;;;;19.85;7.47;;;18.60;89.10;;;;;;4994802;28;20027;-53
2023/05/26 11:55:02;;;;;;;21.67;7.63;;;18.60;88.50;;;;;;5011078;28;20030;-53
2023/05/26 11:57:51;;;;;;;21.02;7.20;;;18.60;89.10;;;;;;5012416;28;20109;-51
2023/05/26 12:00:38;;;;;;;19.50;7.53;;;18.50;88.10;;;;;;5012642;28;20761;-50
2023/05/26 12:03:24;;;;;;;17.23;6.60;;;18.60;88.40;;;;;;5008144;28;20065;-52
2023/05/26 12:06:15;;;;;;;18.25;6.97;;;18.60;88.20;;;;;;5003173;28;20101;-52
2023/05/26 12:09:08;;;;;;;22.27;7.55;;;18.70;88.00;;;;;;5002740;28;20030;-51
2023/05/26 12:11:54;;;;;;;18.73;8.00;;;18.70;88.20;;;;;;5006467;28;20041;-54
2023/05/26 12:14:40;;;;;;;20.77;7.45;;;18.60;88.20;;;;;;5007064;28;20034;-54
2023/05/26 12:17:26;;;;;;;15.82;6.43;;;18.60;86.50;;;;;;5007319;28;20027;-51
2023/05/26 12:20:17;;;;;;;17.75;7.63;;;18.80;84.80;;;;;;5005617;28;20034;-52
2023/05/26 12:23:05;;;;;;;18.10;7.35;;;19.00;86.10;;;;;;5006606;28;20030;-53
2023/05/26 12:25:51;;;;;;;18.17;7.82;;;19.10;85.80;;;;;;4990944;28;20040;-55
2023/05/26 12:28:40;;;;;;;19.83;7.47;;;19.30;85.50;;;;;;5003201;28;20030;-50
2023/05/26 12:32:02;;;;;;;18.45;7.57;;;19.40;85.50;;;;;;5010701;28;20040;-48
2023/05/26 12:34:48;;;;;;;19.67;7.13;;;19.40;86.10;;;;;;5011896;28;20092;-53
2023/05/26 12:37:33;;;;;;;17.55;6.68;;;19.50;85.90;;;;;;5010848;28;20034;-49
2023/05/26 12:40:19;;;;;;;17.67;7.18;;;19.60;84.60;;;;;;5007244;28;20041;-52
2023/05/26 12:43:06;;;;;;;19.85;6.50;;;19.50;84.00;;;;;;5013435;28;20030;-53
2023/05/26 12:45:52;;;;;;;15.55;7.18;;;19.40;85.00;;;;;;5013251;28;20049;-53
2023/05/26 12:48:38;;;;;;;19.35;7.57;;;19.80;84.80;;;;;;5010750;28;20042;-54
2023/05/26 12:51:25;;;;;;;21.02;7.05;;;20.00;84.00;;;;;;5011688;28;20073;-49
2023/05/26 12:54:11;;;;;;;24.05;8.25;;;19.70;84.20;;;;;;5011425;28;20168;-50
2023/05/26 12:56:57;;;;;;;19.30;6.80;;;19.50;86.30;;;;;;5010602;28;20109;-54
2023/05/26 12:59:43;;;;;;;18.60;6.55;;;19.70;85.90;;;;;;5010347;28;20030;-49
2023/05/26 13:02:31;;;;;;;19.08;7.55;;;19.80;83.20;;;;;;5012655;28;20061;-50
2023/05/26 13:05:18;;;;;;;20.65;7.20;;;19.80;83.60;;;;;;5009488;28;20025;-53
2023/05/26 13:08:04;;;;;;;15.45;6.72;;;19.70;83.00;;;;;;5003144;28;20521;-54
2023/05/26 13:10:50;;;;;;;16.50;7.13;;;19.70;84.60;;;;;;5008731;28;20084;-50
2023/05/26 13:13:37;;;;;;;19.55;7.28;;;19.90;85.20;;;;;;5012693;28;20030;-51
2023/05/26 13:16:23;;;;;;;20.45;7.10;;;20.00;84.50;;;;;;5012554;28;20026;-48
2023/05/26 13:19:10;;;;;;;19.13;6.55;;;20.20;84.20;;;;;;5012236;28;20033;-48
2023/05/26 13:21:56;;;;;;;18.80;6.68;;;19.80;82.50;;;;;;5015447;28;20136;-50
2023/05/26 13:24:42;;;;;;;15.63;6.60;;;20.00;82.50;;;;;;5014101;28;20033;-48
2023/05/26 13:27:27;;;;;;;15.52;6.70;;;20.00;82.50;;;;;;5016208;28;20044;-53
2023/05/26 13:30:14;;;;;;;16.38;6.57;;;20.20;81.10;;;;;;5016362;28;20307;-47
2023/05/26 13:33:04;;;;;;;21.00;7.60;;;20.40;81.30;;;;;;5014417;28;20405;-49
2023/05/26 13:35:52;;;;;;;16.50;7.00;;;20.60;80.20;;;;;;5013204;28;20034;-47
2023/05/26 13:38:38;;;;;;;18.95;7.43;;;20.50;81.00;;;;;;5011275;28;20080;-50
2023/05/26 13:41:26;;;;;;;19.48;6.68;;;20.60;81.40;;;;;;5011151;28;20034;-49
2023/05/26 13:44:12;;;;;;;17.90;6.72;;;20.30;81.70;;;;;;5008421;28;20026;-45
2023/05/26 13:46:57;;;;;;;17.65;7.07;;;20.20;81.10;;;;;;5014029;28;20030;-45
2023/05/26 13:49:43;;;;;;;16.20;6.50;;;20.30;80.70;;;;;;5013099;28;20080;-48
2023/05/26 13:52:31;;;;;;;19.20;6.88;;;20.60;80.90;;;;;;5009959;28;20070;-49
2023/05/26 13:55:17;;;;;;;13.18;5.90;;;20.60;80.00;;;;;;5007734;28;20103;-48
2023/05/26 13:58:04;;;;;;;14.20;6.53;;;20.90;79.30;;;;;;5010242;28;20025;-48
2023/05/26 14:00:50;;;;;;;17.08;6.72;;;21.00;78.40;;;;;;5010841;28;20038;-46
2023/05/26 14:03:36;;;;;;;18.85;6.30;;;21.10;78.80;;;;;;5010676;28;20046;-47
2023/05/26 14:06:22;;;;;;;20.75;6.32;;;21.00;76.50;;;;;;5010992;28;20394;-46
2023/05/26 14:09:10;;;;;;;19.35;6.85;;;21.00;76.20;;;;;;5012100;28;20562;-47
2023/05/26 14:11:56;;;;;;;15.30;6.55;;;21.00;75.70;;;;;;5010445;28;20029;-46